createdAt,value
2018-08-13T00:01:42.244Z,3.83
2018-08-13T00:05:45.081Z,2.83
2018-08-13T00:09:47.696Z,4.00
2018-08-13T00:13:50.395Z,5.10
2018-08-13T00:17:52.983Z,2.10
2018-08-13T00:21:55.523Z,2.63
2018-08-13T00:25:58.125Z,2.87
2018-08-13T00:30:00.678Z,2.57
2018-08-13T00:34:03.248Z,2.53
2018-08-13T00:38:06.304Z,2.93
2018-08-13T00:42:08.926Z,2.80
2018-08-13T00:46:11.611Z,3.03
2018-08-13T00:50:15.111Z,3.70
2018-08-13T00:54:17.722Z,3.23
2018-08-13T00:58:20.421Z,3.17
2018-08-13T01:02:23.094Z,5.07
2018-08-13T01:06:25.648Z,3.47
2018-08-13T01:10:28.236Z,3.17
2018-08-13T01:14:30.946Z,3.70
2018-08-13T01:18:33.581Z,2.37
2018-08-13T01:22:42.869Z,3.63
2018-08-13T01:26:45.426Z,4.10
2018-08-13T01:30:48.147Z,3.60
2018-08-13T01:34:50.781Z,2.73
2018-08-13T01:38:53.378Z,2.50
2018-08-13T01:42:56.000Z,2.97
2018-08-13T01:46:58.607Z,3.00
2018-08-13T01:51:01.230Z,3.83
2018-08-13T01:55:04.735Z,3.20
2018-08-13T01:59:07.356Z,3.63
2018-08-13T02:03:09.931Z,3.77
2018-08-13T02:07:12.568Z,3.37
2018-08-13T02:11:15.204Z,8.17
2018-08-13T02:15:17.792Z,2.67
2018-08-13T02:19:20.534Z,5.27
2018-08-13T02:23:23.189Z,3.10
2018-08-13T02:27:25.795Z,5.77
2018-08-13T02:31:28.514Z,2.47
2018-08-13T02:35:31.105Z,4.07
2018-08-13T02:39:33.690Z,3.67
2018-08-13T02:43:36.300Z,2.40
2018-08-13T02:47:39.001Z,3.27
2018-08-13T02:51:41.585Z,3.23
2018-08-13T02:55:44.163Z,2.33
2018-08-13T02:59:46.807Z,3.17
2018-08-13T03:03:49.429Z,3.20
2018-08-13T03:07:52.077Z,3.27
2018-08-13T03:11:54.629Z,2.10
2018-08-13T03:15:57.281Z,3.97
2018-08-13T03:20:00.632Z,2.37
2018-08-13T03:24:03.272Z,3.77
2018-08-13T03:28:05.880Z,4.17
2018-08-13T03:32:08.500Z,4.07
2018-08-13T03:36:11.072Z,3.83
2018-08-13T03:40:13.701Z,2.63
2018-08-13T03:48:25.501Z,3.17
2018-08-13T03:52:28.072Z,3.77
2018-08-13T03:56:30.634Z,3.53
2018-08-13T04:00:33.249Z,5.53
2018-08-13T04:04:35.991Z,3.43
2018-08-13T04:08:38.590Z,3.73
2018-08-13T04:12:42.435Z,4.43
2018-08-13T04:16:49.912Z,3.93
2018-08-13T04:20:52.576Z,2.93
2018-08-13T04:24:55.156Z,2.73
2018-08-13T04:28:57.710Z,4.00
2018-08-13T04:33:00.395Z,8.77
2018-08-13T04:37:03.066Z,4.03
2018-08-13T04:41:05.679Z,4.83
2018-08-13T04:45:09.357Z,3.30
2018-08-13T04:49:11.946Z,3.00
2018-08-13T04:53:14.569Z,6.77
2018-08-13T04:57:17.199Z,3.97
2018-08-13T05:01:19.832Z,5.10
2018-08-13T05:05:22.444Z,2.23
2018-08-13T05:09:25.024Z,3.13
2018-08-13T05:13:27.689Z,4.23
2018-08-13T05:17:30.325Z,4.77
2018-08-13T05:21:33.031Z,3.03
2018-08-13T05:25:35.746Z,5.73
2018-08-13T05:29:38.315Z,5.93
2018-08-13T05:33:41.425Z,5.80
2018-08-13T05:37:44.156Z,8.30
2018-08-13T05:41:46.749Z,6.90
2018-08-13T05:45:49.293Z,4.70
2018-08-13T05:49:51.997Z,4.50
2018-08-13T05:53:54.610Z,7.37
2018-08-13T05:57:57.205Z,3.87
2018-08-13T06:01:59.786Z,9.00
2018-08-13T06:06:02.539Z,8.27
2018-08-13T06:10:06.543Z,4.80
2018-08-13T06:14:09.120Z,4.63
2018-08-13T06:18:11.785Z,4.87
2018-08-13T06:22:14.380Z,5.83
2018-08-13T06:26:16.944Z,10.13
2018-08-13T06:30:19.558Z,6.17
2018-08-13T06:34:22.154Z,5.10
2018-08-13T06:38:24.760Z,3.80
2018-08-13T06:42:27.404Z,4.30
2018-08-13T06:46:29.985Z,5.40
2018-08-13T06:50:32.521Z,6.43
2018-08-13T06:54:35.129Z,7.23
2018-08-13T06:58:37.813Z,7.03
2018-08-13T07:02:40.539Z,6.70
2018-08-13T07:06:43.388Z,7.73
2018-08-13T07:10:45.977Z,4.33
2018-08-13T07:14:48.714Z,8.37
2018-08-13T07:18:51.239Z,8.23
2018-08-13T07:22:53.902Z,8.80
2018-08-13T07:26:56.564Z,5.70
2018-08-13T07:30:59.141Z,9.30
2018-08-13T07:35:01.860Z,6.03
2018-08-13T07:39:07.640Z,7.87
2018-08-13T07:43:10.083Z,7.60
2018-08-13T07:47:12.765Z,23.50
2018-08-13T07:51:15.351Z,6.43
2018-08-13T07:55:18.058Z,10.07
2018-08-13T07:59:20.791Z,5.70
2018-08-13T08:03:23.392Z,9.40
2018-08-13T08:07:26.007Z,6.70
2018-08-13T08:11:28.594Z,5.80
2018-08-13T08:15:31.294Z,11.20
2018-08-13T08:19:33.975Z,9.53
2018-08-13T08:23:36.660Z,7.80
2018-08-13T08:27:39.567Z,5.77
2018-08-13T08:31:42.217Z,5.37
2018-08-13T08:35:44.912Z,6.90
2018-08-13T08:39:47.543Z,8.63
2018-08-13T08:43:51.013Z,7.27
2018-08-13T08:47:55.196Z,3.90
2018-08-13T08:51:57.797Z,5.10
2018-08-13T08:56:00.371Z,6.63
2018-08-13T09:00:03.060Z,3.53
2018-08-13T09:04:06.298Z,7.07
2018-08-13T09:08:08.924Z,5.83
2018-08-13T09:12:11.617Z,8.07
2018-08-13T09:16:14.287Z,5.63
2018-08-13T09:20:28.197Z,6.00
2018-08-13T09:24:42.276Z,4.70
2018-08-13T09:28:56.013Z,4.33
2018-08-13T09:33:09.993Z,2.73
2018-08-13T09:37:12.605Z,4.80
2018-08-13T09:41:15.145Z,4.43
2018-08-13T09:45:17.736Z,4.03
2018-08-13T09:49:20.278Z,5.87
2018-08-13T09:53:22.827Z,3.50
2018-08-13T09:57:25.349Z,5.50
2018-08-13T10:01:27.981Z,5.33
2018-08-13T10:05:30.602Z,5.47
2018-08-13T10:09:33.176Z,6.43
2018-08-13T10:13:35.810Z,6.93
2018-08-13T10:17:38.635Z,7.40
2018-08-13T10:21:41.229Z,4.10
2018-08-13T10:25:43.860Z,4.60
2018-08-13T10:29:46.437Z,4.90
2018-08-13T10:33:49.074Z,3.90
2018-08-13T10:37:51.682Z,4.00
2018-08-13T10:41:54.402Z,2.03
2018-08-13T10:45:56.980Z,2.63
2018-08-13T10:49:59.747Z,7.03
2018-08-13T10:54:02.339Z,3.40
2018-08-13T10:58:05.563Z,2.10
2018-08-13T11:02:08.177Z,2.70
2018-08-13T11:06:10.917Z,3.07
2018-08-13T11:10:14.591Z,4.83
2018-08-13T11:14:17.297Z,7.23
2018-08-13T11:18:19.858Z,3.10
2018-08-13T11:22:22.469Z,1.90
2018-08-13T11:26:25.094Z,3.20
2018-08-13T11:30:27.720Z,3.80
2018-08-13T11:34:30.271Z,4.97
2018-08-13T11:38:32.924Z,4.00
2018-08-13T11:42:35.515Z,4.50
2018-08-13T11:46:38.199Z,3.03
2018-08-13T11:50:40.835Z,2.57
2018-08-13T11:54:43.482Z,2.53
2018-08-13T11:58:46.035Z,3.03
2018-08-13T12:02:48.736Z,2.93
2018-08-13T12:06:51.350Z,1.80
2018-08-13T12:10:54.122Z,2.03
2018-08-13T12:14:56.653Z,4.43
2018-08-13T12:18:59.316Z,2.70
2018-08-13T12:23:02.114Z,4.73
2018-08-13T12:27:05.012Z,2.73
2018-08-13T12:31:07.728Z,3.40
2018-08-13T12:35:10.375Z,6.03
2018-08-13T12:39:12.982Z,3.10
2018-08-13T12:43:15.617Z,3.07
2018-08-13T12:47:18.348Z,2.53
2018-08-13T12:51:20.980Z,2.63
2018-08-13T12:55:23.613Z,2.43
2018-08-13T12:59:26.220Z,3.00
2018-08-13T13:03:29.186Z,2.00
2018-08-13T13:07:31.901Z,2.53
2018-08-13T13:11:34.542Z,4.23
2018-08-13T13:15:37.143Z,1.80
2018-08-13T13:19:39.837Z,2.97
2018-08-13T13:23:42.402Z,2.67
2018-08-13T13:27:44.993Z,2.37
2018-08-13T13:31:47.595Z,3.00
2018-08-13T13:35:50.156Z,2.87
2018-08-13T13:39:52.797Z,3.80
2018-08-13T13:43:55.351Z,2.90
2018-08-13T13:47:57.958Z,3.60
2018-08-13T13:52:01.031Z,2.40
2018-08-13T13:56:03.765Z,3.43
2018-08-13T14:00:10.000Z,5.30
2018-08-13T14:04:12.660Z,4.40
2018-08-13T14:08:15.264Z,4.20
2018-08-13T14:12:17.836Z,4.63
2018-08-13T14:16:20.426Z,5.87
2018-08-13T14:20:23.081Z,4.87
2018-08-13T14:24:25.823Z,4.17
2018-08-13T14:28:28.531Z,3.23
2018-08-13T14:32:31.180Z,3.40
2018-08-13T14:36:33.868Z,5.33
2018-08-13T14:40:36.468Z,3.40
2018-08-13T14:44:39.125Z,6.23
2018-08-13T14:48:41.724Z,5.10
2018-08-13T14:52:45.606Z,6.50
2018-08-13T14:56:48.228Z,4.00
2018-08-13T15:00:50.816Z,6.03
2018-08-13T15:04:53.503Z,4.30
2018-08-13T15:08:56.138Z,5.50
2018-08-13T15:12:58.865Z,6.83
2018-08-13T15:17:01.469Z,4.97
2018-08-13T15:21:04.227Z,6.27
2018-08-13T15:25:07.115Z,3.93
2018-08-13T15:29:09.681Z,4.23
2018-08-13T15:33:12.588Z,7.03
2018-08-13T15:37:15.256Z,4.90
2018-08-13T15:41:17.881Z,7.40
2018-08-13T15:45:22.493Z,7.03
2018-08-13T15:49:25.089Z,8.87
2018-08-13T15:53:27.703Z,5.17
2018-08-13T15:57:30.262Z,5.27
2018-08-13T16:01:32.857Z,9.30
2018-08-13T16:05:35.539Z,8.83
2018-08-13T16:09:38.152Z,7.07
2018-08-13T16:13:40.752Z,9.07
2018-08-13T16:17:43.476Z,6.33
2018-08-13T16:21:46.036Z,5.83
2018-08-13T16:25:48.674Z,7.93
2018-08-13T16:29:51.332Z,4.87
2018-08-13T16:33:54.062Z,5.20
2018-08-13T16:37:56.977Z,4.73
2018-08-13T16:41:59.607Z,5.50
2018-08-13T16:46:02.229Z,6.93
2018-08-13T16:50:13.493Z,7.57
2018-08-13T16:54:16.044Z,7.33
2018-08-13T16:58:18.672Z,7.80
2018-08-13T17:02:21.266Z,9.43
2018-08-13T17:06:23.896Z,9.27
2018-08-13T17:10:27.838Z,9.47
2018-08-13T17:14:33.918Z,11.10
2018-08-13T17:18:36.914Z,10.90
2018-08-13T17:22:39.478Z,12.63
2018-08-13T17:26:42.224Z,14.03
2018-08-13T17:30:44.791Z,14.13
2018-08-13T17:34:47.348Z,16.53
2018-08-13T17:38:49.978Z,15.13
2018-08-13T17:42:54.418Z,15.00
2018-08-13T17:46:56.990Z,16.30
2018-08-13T17:50:59.554Z,17.73
2018-08-13T17:55:02.216Z,20.63
2018-08-13T17:59:05.067Z,17.90
2018-08-13T18:03:07.709Z,19.73
2018-08-13T18:07:10.346Z,18.33
2018-08-13T18:11:13.014Z,23.67
2018-08-13T18:15:16.318Z,16.40
2018-08-13T18:19:19.098Z,18.17
2018-08-13T18:23:21.758Z,20.40
2018-08-13T18:27:24.318Z,18.00
2018-08-13T18:31:26.977Z,19.73
2018-08-13T18:35:29.655Z,16.40
2018-08-13T18:39:32.285Z,17.73
2018-08-13T18:43:35.065Z,16.80
2018-08-13T18:47:38.173Z,18.97
2018-08-13T18:51:40.905Z,12.87
2018-08-13T18:55:43.590Z,11.70
2018-08-13T18:59:46.266Z,11.07
2018-08-13T19:03:48.887Z,9.77
2018-08-13T19:07:52.048Z,11.80
2018-08-13T19:11:56.224Z,12.50
2018-08-13T19:15:58.848Z,13.97
2018-08-13T19:20:01.496Z,10.07
2018-08-13T19:24:04.121Z,10.70
2018-08-13T19:28:06.835Z,14.03
2018-08-13T19:32:09.435Z,33.43
2018-08-13T19:36:12.114Z,12.53
2018-08-13T19:40:17.034Z,14.77
2018-08-13T19:44:19.696Z,14.90
2018-08-13T19:48:22.381Z,14.57
2018-08-13T19:52:24.983Z,14.30
2018-08-13T19:56:27.554Z,14.70
2018-08-13T20:00:30.178Z,13.03
2018-08-13T20:04:32.737Z,11.70
2018-08-13T20:08:35.379Z,12.70
2018-08-13T20:12:38.002Z,15.27
2018-08-13T20:16:40.649Z,13.30
2018-08-13T20:20:43.315Z,11.93
2018-08-13T20:24:45.974Z,14.17
2018-08-13T20:28:48.744Z,11.70
2018-08-13T20:32:52.320Z,13.37
2018-08-13T20:36:54.914Z,14.63
2018-08-13T20:40:57.524Z,13.40
2018-08-13T20:45:00.104Z,17.43
2018-08-13T20:49:02.730Z,13.23
2018-08-13T20:53:05.395Z,13.70
2018-08-13T20:57:08.135Z,13.10
2018-08-13T21:01:10.769Z,12.00
2018-08-13T21:05:13.420Z,14.40
2018-08-13T21:09:16.038Z,11.57
2018-08-13T21:13:18.925Z,14.83
2018-08-13T21:17:21.490Z,12.90
2018-08-13T21:21:24.052Z,10.43
2018-08-13T21:25:26.753Z,15.53
2018-08-13T21:29:29.384Z,11.80
2018-08-13T21:33:32.045Z,12.23
2018-08-13T21:37:35.409Z,14.97
2018-08-13T21:41:38.327Z,13.23
2018-08-13T21:45:41.025Z,13.50
2018-08-13T21:49:43.550Z,14.33
2018-08-13T21:53:46.110Z,15.63
2018-08-13T21:57:48.829Z,16.40
2018-08-13T22:01:53.296Z,13.33
2018-08-13T22:05:55.877Z,15.07
2018-08-13T22:09:58.535Z,17.23
2018-08-13T22:14:01.273Z,13.20
2018-08-13T22:18:05.845Z,16.17
2018-08-13T22:26:18.034Z,13.47
2018-08-13T22:30:20.757Z,11.10
2018-08-13T22:34:23.351Z,12.20
2018-08-13T22:38:26.102Z,12.90
2018-08-13T22:42:28.733Z,12.37
2018-08-13T22:46:31.332Z,17.77
2018-08-13T22:50:34.028Z,15.37
2018-08-13T22:54:36.704Z,13.00
2018-08-13T22:58:39.290Z,17.50
2018-08-13T23:02:42.441Z,15.20
2018-08-13T23:06:45.067Z,15.93
2018-08-13T23:10:47.637Z,15.20
2018-08-13T23:14:50.320Z,15.57
2018-08-13T23:18:52.843Z,13.40
2018-08-13T23:22:59.589Z,16.80
2018-08-13T23:27:02.283Z,18.33
2018-08-13T23:31:04.861Z,20.03
2018-08-13T23:35:07.508Z,19.43
2018-08-13T23:39:12.108Z,18.17
2018-08-13T23:43:14.804Z,18.00
2018-08-13T23:47:17.488Z,21.37
2018-08-13T23:51:20.113Z,19.80
2018-08-13T23:55:28.477Z,22.10
2018-08-13T23:59:31.298Z,22.50
